Time;durP1;ratioP1;P1;durP2;ratioP2;P2;SDS_P1;SDS_P2;PMS_P1;PMS_P2;Temp;Humidity;BMP_temperature;BMP_pressure;BME280_temperature;BME280_humidity;BME280_pressure;Samples;Min_cycle;Max_cycle;Signal;HPM_P1;HPM_P2
2022/08/18 00:00:28;;;;;;;;;;;16.90;99.90;;;;;;5121012;27;19923;-55
2022/08/18 00:03:09;;;;;;;;;;;16.90;99.90;;;;;;5125316;27;20389;-56
2022/08/18 00:05:49;;;;;;;;;;;16.80;99.90;;;;;;5126073;27;19922;-56
2022/08/18 00:08:29;;;;;;;;;;;16.80;99.90;;;;;;5125286;27;19945;-56
2022/08/18 00:11:09;;;;;;;;;;;16.80;99.90;;;;;;5095478;27;20382;-55
2022/08/18 00:13:49;;;;;;;;;;;16.80;99.90;;;;;;5125810;27;20411;-56
2022/08/18 00:16:29;;;;;;;;;;;16.70;99.90;;;;;;5104986;27;20394;-56
2022/08/18 00:19:08;;;;;;;;;;;16.70;99.90;;;;;;5124637;27;19929;-56
2022/08/18 00:21:48;;;;;;;;;;;16.60;99.90;;;;;;5117069;27;20245;-56
2022/08/18 00:24:29;;;;;;;;;;;16.50;99.90;;;;;;5105038;27;20342;-56
2022/08/18 00:27:11;;;;;;;;;;;16.50;99.90;;;;;;5125705;27;19915;-56
2022/08/18 00:29:51;;;;;;;;;;;16.40;99.90;;;;;;5146194;27;19916;-56
2022/08/18 00:32:34;;;;;;;;;;;16.40;99.90;;;;;;5084878;28;19938;-56
2022/08/18 00:35:17;;;;;;;;;;;16.30;99.90;;;;;;5105107;27;20290;-56
2022/08/18 00:37:58;;;;;;;;;;;16.20;99.90;;;;;;5125684;27;19911;-56
2022/08/18 00:40:40;;;;;;;;;;;16.10;99.90;;;;;;5124471;27;19912;-56
2022/08/18 00:43:23;;;;;;;;;;;16.10;99.90;;;;;;5125979;27;20107;-56
2022/08/18 00:46:05;;;;;;;;;;;16.10;99.90;;;;;;5123646;27;19912;-56
2022/08/18 00:48:57;;;;;;;;;;;16.10;99.90;;;;;;5111591;27;19916;-56
2022/08/18 00:51:41;;;;;;;;;;;16.20;99.90;;;;;;5103557;27;19913;-56
2022/08/18 00:54:22;;;;;;;;;;;16.10;99.90;;;;;;5116416;27;19922;-58
2022/08/18 00:57:05;;;;;;;;;;;16.10;99.90;;;;;;5124676;27;19912;-56
2022/08/18 00:59:47;;;;;;;;;;;16.00;99.90;;;;;;5124817;27;19911;-56
2022/08/18 01:02:31;;;;;;;;;;;16.00;99.90;;;;;;5125567;27;19912;-56
2022/08/18 01:05:14;;;;;;;;;;;16.00;99.90;;;;;;5125410;27;19916;-56
2022/08/18 01:07:55;;;;;;;;;;;16.10;99.90;;;;;;5125430;27;19912;-56
2022/08/18 01:10:36;;;;;;;;;;;16.10;99.90;;;;;;5117712;27;19912;-58
2022/08/18 01:13:17;;;;;;;;;;;16.10;99.90;;;;;;5104547;27;19912;-56
2022/08/18 01:15:57;;;;;;;;;;;16.00;99.90;;;;;;5125316;27;19912;-56
2022/08/18 01:21:52;;;;;;;;;;;16.20;99.90;;;;;;5111542;27;20289;-56
2022/08/18 01:27:32;;;;;;;;;;;16.50;99.90;;;;;;5084874;28;19912;-56
2022/08/18 01:30:17;;;;;;;;;;;16.60;99.90;;;;;;5124014;27;19922;-56
2022/08/18 01:32:57;;;;;;;;;;;16.70;99.90;;;;;;5125513;27;19918;-56
2022/08/18 01:35:40;;;;;;;;;;;16.90;99.90;;;;;;5125199;27;20277;-55
2022/08/18 01:38:22;;;;;;;;;;;17.30;99.90;;;;;;5125315;27;19943;-55
2022/08/18 01:41:02;;;;;;;;;;;17.80;99.90;;;;;;5124832;27;19919;-56
2022/08/18 01:43:42;;;;;;;;;;;18.20;99.90;;;;;;5125527;27;20114;-55
2022/08/18 01:46:22;;;;;;;;;;;18.50;99.90;;;;;;5125262;27;20317;-55
2022/08/18 01:49:02;;;;;;;;;;;18.80;99.90;;;;;;5124863;27;20421;-55
2022/08/18 01:51:43;;;;;;;;;;;18.90;99.90;;;;;;5125568;27;19918;-55
2022/08/18 01:54:23;;;;;;;;;;;19.00;99.90;;;;;;5105432;27;20332;-56
2022/08/18 01:57:03;;;;;;;;;;;19.00;99.90;;;;;;5125805;27;19934;-57
2022/08/18 01:59:43;;;;;;;;;;;19.00;99.90;;;;;;5125622;27;19911;-56
2022/08/18 02:02:26;;;;;;;;;;;18.90;99.90;;;;;;5147153;27;19912;-56
2022/08/18 02:05:09;;;;;;;;;;;18.90;99.90;;;;;;5105337;27;19926;-56
2022/08/18 02:07:50;;;;;;;;;;;18.90;99.90;;;;;;5125294;27;19929;-54
2022/08/18 02:10:30;;;;;;;;;;;18.90;99.90;;;;;;5125204;27;19918;-55
2022/08/18 02:13:10;;;;;;;;;;;19.00;99.90;;;;;;5126000;27;19912;-56
2022/08/18 02:15:50;;;;;;;;;;;19.10;99.90;;;;;;5104600;27;19924;-55
2022/08/18 02:18:31;;;;;;;;;;;19.30;99.90;;;;;;5125217;27;19912;-55
2022/08/18 02:21:13;;;;;;;;;;;19.50;99.90;;;;;;5125807;27;19912;-56
2022/08/18 02:23:52;;;;;;;;;;;19.60;99.90;;;;;;5104871;27;19912;-56
2022/08/18 02:26:32;;;;;;;;;;;19.50;99.90;;;;;;5125792;27;19950;-54
2022/08/18 02:29:12;;;;;;;;;;;19.50;99.90;;;;;;5124939;27;19911;-56
2022/08/18 02:31:52;;;;;;;;;;;19.50;99.90;;;;;;5125912;27;19912;-55
2022/08/18 02:34:33;;;;;;;;;;;19.40;99.90;;;;;;5125561;27;20331;-55
2022/08/18 02:37:13;;;;;;;;;;;19.40;99.90;;;;;;5125226;27;19918;-55
2022/08/18 02:39:53;;;;;;;;;;;19.40;99.90;;;;;;5125230;27;19912;-55
2022/08/18 02:42:33;;;;;;;;;;;19.40;99.90;;;;;;5125438;27;20217;-56
2022/08/18 02:45:13;;;;;;;;;;;19.40;99.90;;;;;;5125312;27;20262;-56
2022/08/18 02:47:55;;;;;;;;;;;19.40;99.90;;;;;;5104691;27;19946;-54
2022/08/18 02:50:43;;;;;;;;;;;19.40;99.90;;;;;;5120196;27;20292;-55
2022/08/18 02:53:23;;;;;;;;;;;19.40;99.90;;;;;;5105197;27;19912;-55
2022/08/18 02:56:21;;;;;;;;;;;19.40;99.90;;;;;;5125537;27;19912;-56
2022/08/18 02:59:04;;;;;;;;;;;19.50;99.90;;;;;;5124294;27;19938;-55
2022/08/18 03:01:46;;;;;;;;;;;19.60;99.90;;;;;;5090687;27;20364;-56
2022/08/18 03:04:28;;;;;;;;;;;19.70;99.90;;;;;;5125666;27;19912;-55
2022/08/18 03:07:08;;;;;;;;;;;19.80;99.90;;;;;;5125261;27;20449;-55
2022/08/18 03:09:48;;;;;;;;;;;19.80;99.90;;;;;;5124210;27;20320;-56
2022/08/18 03:12:28;;;;;;;;;;;19.70;99.90;;;;;;5104604;27;19916;-55
2022/08/18 03:15:08;;;;;;;;;;;19.60;99.90;;;;;;5125804;27;19916;-56
2022/08/18 03:17:47;;;;;;;;;;;19.60;99.90;;;;;;5152407;27;19911;-56
2022/08/18 03:20:27;;;;;;;;;;;19.70;99.90;;;;;;5126286;27;19912;-56
2022/08/18 03:23:07;;;;;;;;;;;19.60;99.90;;;;;;5105323;27;19934;-55
2022/08/18 03:25:48;;;;;;;;;;;19.60;99.90;;;;;;5125407;27;20431;-55
2022/08/18 03:28:28;;;;;;;;;;;19.60;99.90;;;;;;5125435;27;19916;-56
2022/08/18 03:31:09;;;;;;;;;;;19.60;99.90;;;;;;5116190;27;19912;-54
2022/08/18 03:33:50;;;;;;;;;;;19.70;99.90;;;;;;5126052;27;20170;-56
2022/08/18 03:36:32;;;;;;;;;;;19.70;99.90;;;;;;5105451;27;19912;-55
2022/08/18 03:39:13;;;;;;;;;;;19.70;99.90;;;;;;5124551;27;19925;-55
2022/08/18 03:41:53;;;;;;;;;;;19.70;99.90;;;;;;5125215;27;19912;-56
2022/08/18 03:44:36;;;;;;;;;;;19.70;99.90;;;;;;5104768;27;20491;-55
2022/08/18 03:47:18;;;;;;;;;;;19.70;99.90;;;;;;5125057;27;20292;-55
2022/08/18 03:49:58;;;;;;;;;;;19.60;99.90;;;;;;5128439;27;19918;-56
2022/08/18 03:52:38;;;;;;;;;;;19.60;99.90;;;;;;5125839;27;19920;-55
2022/08/18 03:55:18;;;;;;;;;;;19.60;99.90;;;;;;5104994;27;19916;-56
2022/08/18 03:58:01;;;;;;;;;;;19.50;99.90;;;;;;5104905;27;19912;-55
2022/08/18 04:00:42;;;;;;;;;;;19.50;99.90;;;;;;5119195;27;19919;-55
2022/08/18 04:03:22;;;;;;;;;;;19.40;99.90;;;;;;5126281;27;19916;-55
2022/08/18 04:06:02;;;;;;;;;;;19.40;99.90;;;;;;5125827;27;19916;-56
2022/08/18 04:08:43;;;;;;;;;;;19.30;99.90;;;;;;5105539;27;19916;-57
2022/08/18 04:11:23;;;;;;;;;;;19.30;99.90;;;;;;5114416;27;19912;-55
2022/08/18 04:14:03;;;;;;;;;;;19.30;99.90;;;;;;5125870;27;19915;-56
2022/08/18 04:16:45;;;;;;;;;;;19.30;99.90;;;;;;5125124;27;19912;-56
2022/08/18 04:19:26;;;;;;;;;;;19.20;99.90;;;;;;5124747;27;19945;-55
2022/08/18 04:22:06;;;;;;;;;;;19.20;99.90;;;;;;5105139;27;20382;-55
2022/08/18 04:24:46;;;;;;;;;;;19.20;99.90;;;;;;5125401;27;20336;-56
2022/08/18 04:27:27;;;;;;;;;;;19.10;99.90;;;;;;5125085;27;20215;-56
2022/08/18 04:30:10;;;;;;;;;;;19.10;99.90;;;;;;5104318;27;19926;-55
2022/08/18 04:32:50;;;;;;;;;;;19.10;99.90;;;;;;5105028;27;19916;-56
2022/08/18 04:35:30;;;;;;;;;;;19.10;99.90;;;;;;5125766;27;20361;-56
2022/08/18 04:38:09;;;;;;;;;;;19.10;99.90;;;;;;5105640;27;20316;-56
2022/08/18 04:40:50;;;;;;;;;;;19.10;99.90;;;;;;5076861;28;19913;-56
2022/08/18 04:43:31;;;;;;;;;;;19.10;99.90;;;;;;5125438;27;19912;-56
2022/08/18 04:46:11;;;;;;;;;;;19.10;99.90;;;;;;5125964;27;20296;-55
2022/08/18 04:48:57;;;;;;;;;;;19.20;99.90;;;;;;5104248;27;19915;-56
2022/08/18 04:51:40;;;;;;;;;;;19.30;99.90;;;;;;5091741;27;20404;-55
2022/08/18 04:54:23;;;;;;;;;;;19.30;99.90;;;;;;5105885;27;20137;-55
2022/08/18 04:57:07;;;;;;;;;;;19.30;99.90;;;;;;5125193;27;20292;-55
2022/08/18 04:59:48;;;;;;;;;;;19.30;99.90;;;;;;5124736;27;19934;-56
2022/08/18 05:02:31;;;;;;;;;;;19.30;99.90;;;;;;5125482;27;19912;-55
2022/08/18 05:05:12;;;;;;;;;;;19.30;99.90;;;;;;5126465;27;19926;-55
2022/08/18 05:07:51;;;;;;;;;;;19.30;99.90;;;;;;5126169;27;19918;-54
2022/08/18 05:10:31;;;;;;;;;;;19.30;99.90;;;;;;5121441;27;19922;-55
2022/08/18 05:13:15;;;;;;;;;;;19.30;99.90;;;;;;5126327;27;19912;-56
2022/08/18 05:15:56;;;;;;;;;;;19.20;99.90;;;;;;5125643;27;19916;-57
2022/08/18 05:18:39;;;;;;;;;;;19.30;99.90;;;;;;5107170;27;19918;-55
2022/08/18 05:21:19;;;;;;;;;;;19.30;99.90;;;;;;5094164;27;19913;-56
2022/08/18 05:23:59;;;;;;;;;;;19.30;99.90;;;;;;5126136;27;19916;-55
2022/08/18 05:26:40;;;;;;;;;;;19.30;99.90;;;;;;5125218;27;20306;-55
2022/08/18 05:29:21;;;;;;;;;;;19.30;99.90;;;;;;5125134;27;19939;-56
2022/08/18 05:32:02;;;;;;;;;;;19.40;99.90;;;;;;5105233;27;19954;-55
2022/08/18 05:34:47;;;;;;;;;;;19.40;99.90;;;;;;5126016;27;19912;-56
2022/08/18 05:37:32;;;;;;;;;;;19.50;99.90;;;;;;5125526;27;19945;-55
2022/08/18 05:40:14;;;;;;;;;;;19.60;99.90;;;;;;5123314;27;20373;-56
2022/08/18 05:42:56;;;;;;;;;;;19.70;99.90;;;;;;5125883;27;20285;-56
2022/08/18 05:45:36;;;;;;;;;;;19.70;99.90;;;;;;5125732;27;19918;-55
2022/08/18 05:48:16;;;;;;;;;;;19.80;99.90;;;;;;5084669;28;20218;-55
2022/08/18 05:50:58;;;;;;;;;;;20.00;99.90;;;;;;5124645;27;20390;-56
2022/08/18 05:56:48;;;;;;;;;;;20.30;99.90;;;;;;5125406;27;19922;-55
2022/08/18 05:59:31;;;;;;;;;;;20.50;99.90;;;;;;5124841;27;19916;-55
2022/08/18 06:02:14;;;;;;;;;;;20.80;99.90;;;;;;5125655;27;20280;-55
2022/08/18 06:04:56;;;;;;;;;;;21.00;99.90;;;;;;5146455;27;20295;-55
2022/08/18 06:07:40;;;;;;;;;;;21.40;99.90;;;;;;5125484;27;19918;-55
2022/08/18 06:10:20;;;;;;;;;;;21.90;99.90;;;;;;5122769;27;19915;-55
2022/08/18 06:13:01;;;;;;;;;;;22.40;99.90;;;;;;5105166;27;19934;-55
2022/08/18 06:15:51;;;;;;;;;;;22.90;99.90;;;;;;5125312;27;19911;-56
2022/08/18 06:18:41;;;;;;;;;;;23.30;99.90;;;;;;5125264;27;19911;-55
2022/08/18 06:21:28;;;;;;;;;;;23.40;99.90;;;;;;5109350;27;19912;-55
2022/08/18 06:24:11;;;;;;;;;;;23.20;99.90;;;;;;5125867;27;19912;-55
2022/08/18 06:26:55;;;;;;;;;;;23.00;99.90;;;;;;5145857;27;19919;-55
2022/08/18 06:29:46;;;;;;;;;;;22.80;99.90;;;;;;5124926;27;20024;-55
2022/08/18 06:32:33;;;;;;;;;;;22.60;99.90;;;;;;5125899;27;19916;-55
2022/08/18 06:35:17;;;;;;;;;;;22.50;99.90;;;;;;5105429;27;19912;-55
2022/08/18 06:41:08;;;;;;;;;;;22.50;99.90;;;;;;5124774;27;19957;-55
2022/08/18 06:43:57;;;;;;;;;;;22.60;99.90;;;;;;5105282;27;20426;-55
2022/08/18 06:46:41;;;;;;;;;;;22.70;99.90;;;;;;5124855;27;20074;-55
2022/08/18 06:49:24;;;;;;;;;;;22.70;99.90;;;;;;5116989;27;19922;-56
2022/08/18 06:52:25;;;;;;;;;;;22.70;99.90;;;;;;5102515;27;19912;-56
2022/08/18 06:55:07;;;;;;;;;;;22.60;99.90;;;;;;5121961;27;19918;-56
2022/08/18 06:57:56;;;;;;;;;;;22.60;99.90;;;;;;5103292;27;19920;-55
2022/08/18 07:00:36;;;;;;;;;;;22.50;99.90;;;;;;5124981;27;19916;-55
2022/08/18 07:03:19;;;;;;;;;;;22.60;99.90;;;;;;5125688;27;19953;-55
2022/08/18 07:06:01;;;;;;;;;;;22.70;99.90;;;;;;5125979;27;19918;-55
2022/08/18 07:08:43;;;;;;;;;;;22.90;99.90;;;;;;5104780;27;20606;-55
2022/08/18 07:11:24;;;;;;;;;;;23.10;99.90;;;;;;5125893;27;19915;-56
2022/08/18 07:14:14;;;;;;;;;;;23.30;99.90;;;;;;5125779;27;19912;-56
2022/08/18 07:17:05;;;;;;;;;;;23.60;99.90;;;;;;5125466;27;19930;-56
2022/08/18 07:19:54;;;;;;;;;;;24.00;99.90;;;;;;5104137;27;19916;-55
2022/08/18 07:22:51;;;;;;;;;;;24.70;99.90;;;;;;5126415;27;19911;-55
2022/08/18 07:25:33;;;;;;;;;;;25.00;99.90;;;;;;5125630;27;20403;-55
2022/08/18 07:28:26;;;;;;;;;;;25.10;99.90;;;;;;5125009;27;20362;-55
2022/08/18 07:31:18;;;;;;;;;;;24.90;98.80;;;;;;5116497;27;19912;-56
2022/08/18 07:34:01;;;;;;;;;;;24.60;99.90;;;;;;5125531;27;19912;-55
2022/08/18 07:36:46;;;;;;;;;;;24.80;99.90;;;;;;5121793;27;19942;-55
2022/08/18 07:39:30;;;;;;;;;;;25.30;98.10;;;;;;5103159;27;19926;-55
2022/08/18 07:42:16;;;;;;;;;;;25.70;94.20;;;;;;5145596;27;19911;-55
2022/08/18 07:44:59;;;;;;;;;;;26.00;85.50;;;;;;5125633;27;19912;-55
2022/08/18 07:47:49;;;;;;;;;;;26.10;81.40;;;;;;5104681;27;19926;-56
2022/08/18 07:50:34;;;;;;;;;;;26.30;78.80;;;;;;5124534;27;19912;-55
2022/08/18 07:53:18;;;;;;;;;;;26.50;78.20;;;;;;5125715;27;19916;-55
2022/08/18 07:56:02;;;;;;;;;;;26.20;76.20;;;;;;5126049;27;19934;-55
2022/08/18 07:58:44;;;;;;;;;;;26.00;84.40;;;;;;5125296;27;20376;-55
2022/08/18 08:01:28;;;;;;;;;;;25.80;81.90;;;;;;5126114;27;19919;-55
2022/08/18 08:04:11;;;;;;;;;;;25.80;78.60;;;;;;5126096;27;19969;-55
2022/08/18 08:06:54;;;;;;;;;;;26.00;79.00;;;;;;5146725;27;19944;-55
2022/08/18 08:09:41;;;;;;;;;;;26.40;75.70;;;;;;5125023;27;19946;-56
2022/08/18 08:12:29;;;;;;;;;;;26.50;70.20;;;;;;5125981;27;19953;-55
2022/08/18 08:15:13;;;;;;;;;;;26.50;67.10;;;;;;5105812;27;20372;-55
2022/08/18 08:17:55;;;;;;;;;;;26.60;65.70;;;;;;5125266;27;19985;-56
2022/08/18 08:20:39;;;;;;;;;;;26.90;64.90;;;;;;5125412;27;19911;-55
2022/08/18 08:23:24;;;;;;;;;;;27.20;61.30;;;;;;5125684;27;19912;-56
2022/08/18 08:26:20;;;;;;;;;;;27.70;59.10;;;;;;5125830;27;20389;-55
2022/08/18 08:29:10;;;;;;;;;;;28.30;56.40;;;;;;5103975;27;20381;-56
2022/08/18 08:31:53;;;;;;;;;;;28.70;54.80;;;;;;5125994;27;19916;-56
2022/08/18 08:34:38;;;;;;;;;;;28.70;52.80;;;;;;5126208;27;19922;-56
2022/08/18 08:37:20;;;;;;;;;;;28.30;53.10;;;;;;5125809;27;19916;-56
2022/08/18 08:40:02;;;;;;;;;;;28.30;54.10;;;;;;5105370;27;19919;-55
2022/08/18 08:42:44;;;;;;;;;;;28.40;52.20;;;;;;5105083;27;19919;-55
2022/08/18 08:45:26;;;;;;;;;;;28.50;52.20;;;;;;5125516;27;20273;-56
2022/08/18 08:48:11;;;;;;;;;;;28.40;52.80;;;;;;5125991;27;19912;-55
2022/08/18 08:50:55;;;;;;;;;;;28.20;52.00;;;;;;5109323;27;19916;-55
2022/08/18 08:53:35;;;;;;;;;;;27.80;52.70;;;;;;5125562;27;19912;-55
2022/08/18 08:56:17;;;;;;;;;;;27.50;53.50;;;;;;5125498;27;19912;-55
2022/08/18 08:58:59;;;;;;;;;;;27.30;54.30;;;;;;5125220;27;20315;-55
2022/08/18 09:01:41;;;;;;;;;;;27.20;55.40;;;;;;5125299;27;19912;-55
2022/08/18 09:04:38;;;;;;;;;;;27.20;54.90;;;;;;5125600;27;19969;-56
2022/08/18 09:07:26;;;;;;;;;;;27.50;54.20;;;;;;5084157;28;20674;-56
2022/08/18 09:10:17;;;;;;;;;;;27.50;54.30;;;;;;5124919;27;19925;-55
2022/08/18 09:13:07;;;;;;;;;;;27.80;53.80;;;;;;5125821;27;19918;-56
2022/08/18 09:16:06;;;;;;;;;;;28.10;52.50;;;;;;5125585;27;20515;-55
2022/08/18 09:18:55;;;;;;;;;;;28.20;52.50;;;;;;5104392;27;20032;-56
2022/08/18 09:21:40;;;;;;;;;;;28.20;52.20;;;;;;5105235;27;19922;-55
2022/08/18 09:24:24;;;;;;;;;;;28.10;51.80;;;;;;5085329;28;19958;-56
2022/08/18 09:27:23;;;;;;;;;;;28.10;52.00;;;;;;5125795;27;19912;-56
2022/08/18 09:30:06;;;;;;;;;;;28.40;52.50;;;;;;5124993;27;20389;-55
2022/08/18 09:32:57;;;;;;;;;;;28.80;51.00;;;;;;5126229;27;20429;-55
2022/08/18 09:35:47;;;;;;;;;;;28.80;50.70;;;;;;5104905;27;19912;-55
2022/08/18 09:41:44;;;;;;;;;;;29.00;50.00;;;;;;5125020;27;19926;-56
2022/08/18 09:44:46;;;;;;;;;;;29.10;49.90;;;;;;5104899;27;19919;-55
2022/08/18 09:47:40;;;;;;;;;;;29.30;49.40;;;;;;5125287;27;20319;-54
2022/08/18 09:50:38;;;;;;;;;;;29.40;48.50;;;;;;5124893;27;19912;-55
2022/08/18 09:53:32;;;;;;;;;;;29.40;49.00;;;;;;5125745;27;19953;-56
2022/08/18 09:56:13;;;;;;;;;;;29.50;48.90;;;;;;5126016;27;19922;-55
2022/08/18 09:58:55;;;;;;;;;;;29.30;49.30;;;;;;5124323;27;19925;-55
2022/08/18 10:01:39;;;;;;;;;;;29.30;48.70;;;;;;5125903;27;19911;-55
2022/08/18 10:04:30;;;;;;;;;;;29.40;48.80;;;;;;5126259;27;20036;-55
2022/08/18 10:07:28;;;;;;;;;;;29.50;48.40;;;;;;5126103;27;19918;-55
2022/08/18 10:10:11;;;;;;;;;;;29.40;49.10;;;;;;5124491;27;19927;-55
2022/08/18 10:12:55;;;;;;;;;;;29.30;49.00;;;;;;5146627;27;19912;-55
2022/08/18 10:15:39;;;;;;;;;;;29.10;49.20;;;;;;5125550;27;20353;-55
2022/08/18 10:18:35;;;;;;;;;;;29.00;49.40;;;;;;5125563;27;20276;-55
2022/08/18 10:21:20;;;;;;;;;;;28.80;50.20;;;;;;5104704;27;19912;-54
2022/08/18 10:24:14;;;;;;;;;;;28.90;49.80;;;;;;5105401;27;19912;-55
2022/08/18 10:27:01;;;;;;;;;;;29.10;49.60;;;;;;5125858;27;19911;-55
2022/08/18 10:29:54;;;;;;;;;;;29.10;49.80;;;;;;5125619;27;20288;-55
2022/08/18 10:32:40;;;;;;;;;;;29.10;50.30;;;;;;5125476;27;19915;-55
2022/08/18 10:35:51;;;;;;;;;;;29.00;50.90;;;;;;5125444;27;19926;-55
2022/08/18 10:38:39;;;;;;;;;;;29.00;50.20;;;;;;5125645;27;20277;-55
2022/08/18 10:41:25;;;;;;;;;;;29.20;50.30;;;;;;5125030;27;19912;-54
2022/08/18 10:44:06;;;;;;;;;;;29.20;49.50;;;;;;5125983;27;19922;-55
2022/08/18 10:46:46;;;;;;;;;;;29.20;49.10;;;;;;5166820;27;19911;-55
2022/08/18 10:49:27;;;;;;;;;;;29.10;49.30;;;;;;5124466;27;19939;-55
2022/08/18 10:52:19;;;;;;;;;;;29.00;49.30;;;;;;5125683;27;19918;-55
2022/08/18 10:55:16;;;;;;;;;;;28.90;49.70;;;;;;5125315;27;20320;-55
2022/08/18 10:58:18;;;;;;;;;;;28.60;50.20;;;;;;5125870;27;20282;-55
2022/08/18 11:01:07;;;;;;;;;;;28.30;50.40;;;;;;5124843;27;19918;-55
2022/08/18 11:04:02;;;;;;;;;;;28.20;51.70;;;;;;5166868;27;19921;-55
2022/08/18 11:06:44;;;;;;;;;;;28.30;49.70;;;;;;5126030;27;20153;-55
2022/08/18 11:09:25;;;;;;;;;;;28.00;50.90;;;;;;5149436;27;19933;-54
2022/08/18 11:12:05;;;;;;;;;;;28.00;51.60;;;;;;5125815;27;19920;-54
2022/08/18 11:14:54;;;;;;;;;;;28.00;51.10;;;;;;5125948;27;19926;-56
2022/08/18 11:17:39;;;;;;;;;;;27.90;50.30;;;;;;5105084;27;19926;-55
2022/08/18 11:20:21;;;;;;;;;;;28.00;52.10;;;;;;5102126;27;20297;-55
2022/08/18 11:23:03;;;;;;;;;;;28.00;51.30;;;;;;5126149;27;19918;-55
2022/08/18 11:25:43;;;;;;;;;;;28.20;51.00;;;;;;5125615;27;19912;-55
2022/08/18 11:28:29;;;;;;;;;;;28.30;50.60;;;;;;5125575;27;19920;-55
2022/08/18 11:31:09;;;;;;;;;;;28.30;51.10;;;;;;5104557;27;20381;-55
2022/08/18 11:33:49;;;;;;;;;;;28.30;50.10;;;;;;5125381;27;19915;-55
2022/08/18 11:36:33;;;;;;;;;;;28.40;49.40;;;;;;5104588;27;19912;-55
2022/08/18 11:39:14;;;;;;;;;;;28.50;49.60;;;;;;5125329;27;19912;-55
2022/08/18 11:41:54;;;;;;;;;;;28.50;48.80;;;;;;5125558;27;20187;-55
2022/08/18 11:44:36;;;;;;;;;;;28.50;47.90;;;;;;5125401;27;19915;-56
2022/08/18 11:47:18;;;;;;;;;;;28.60;49.00;;;;;;5084217;28;20390;-56
2022/08/18 11:49:59;;;;;;;;;;;28.50;48.60;;;;;;5124971;27;19912;-57
2022/08/18 11:52:49;;;;;;;;;;;28.40;49.30;;;;;;5125812;27;20288;-56
2022/08/18 11:55:33;;;;;;;;;;;28.50;49.50;;;;;;5164385;27;19917;-55
2022/08/18 11:58:33;;;;;;;;;;;28.70;49.40;;;;;;5105024;27;20319;-55
2022/08/18 12:01:29;;;;;;;;;;;28.70;49.10;;;;;;5125424;27;19949;-56
2022/08/18 12:04:23;;;;;;;;;;;28.90;48.50;;;;;;5085146;28;19917;-56
2022/08/18 12:07:07;;;;;;;;;;;28.90;47.90;;;;;;5126093;27;19926;-55
2022/08/18 12:09:48;;;;;;;;;;;28.80;48.50;;;;;;5125446;27;19918;-55
2022/08/18 12:12:30;;;;;;;;;;;28.70;48.20;;;;;;5125735;27;19953;-55
2022/08/18 12:15:25;;;;;;;;;;;28.80;47.40;;;;;;5125444;27;19920;-55
2022/08/18 12:18:06;;;;;;;;;;;28.90;47.00;;;;;;5125661;27;19926;-55
2022/08/18 12:20:45;;;;;;;;;;;29.30;46.20;;;;;;5109482;27;20400;-56
2022/08/18 12:23:25;;;;;;;;;;;29.50;45.70;;;;;;5105843;27;19916;-56
2022/08/18 12:26:06;;;;;;;;;;;29.60;43.90;;;;;;5125702;27;20172;-55
2022/08/18 12:28:46;;;;;;;;;;;29.70;45.10;;;;;;5125711;27;20398;-54
2022/08/18 12:31:28;;;;;;;;;;;30.10;45.20;;;;;;5105309;27;19950;-54
2022/08/18 12:34:08;;;;;;;;;;;30.50;44.10;;;;;;5085490;28;20374;-56
2022/08/18 12:36:47;;;;;;;;;;;30.60;42.70;;;;;;5085246;28;19916;-56
2022/08/18 12:39:28;;;;;;;;;;;31.00;42.20;;;;;;5163836;27;19917;-56
2022/08/18 12:42:09;;;;;;;;;;;31.40;42.20;;;;;;5125430;27;19912;-55
2022/08/18 12:44:49;;;;;;;;;;;31.50;41.80;;;;;;5105397;27;20300;-55
2022/08/18 12:47:30;;;;;;;;;;;31.50;41.10;;;;;;5125225;27;19911;-56
2022/08/18 12:50:11;;;;;;;;;;;31.70;41.30;;;;;;5124786;27;19911;-57
2022/08/18 12:52:51;;;;;;;;;;;31.60;40.50;;;;;;5114295;27;19915;-55
2022/08/18 12:55:34;;;;;;;;;;;31.50;40.60;;;;;;5121894;27;19911;-55
2022/08/18 12:58:15;;;;;;;;;;;31.70;40.40;;;;;;5104728;27;19912;-55
2022/08/18 13:00:56;;;;;;;;;;;32.20;38.30;;;;;;5116167;27;20316;-55
2022/08/18 13:03:35;;;;;;;;;;;32.20;38.20;;;;;;5164739;27;19911;-55
2022/08/18 13:06:15;;;;;;;;;;;32.30;37.80;;;;;;5125482;27;19915;-55
2022/08/18 13:08:55;;;;;;;;;;;32.20;38.00;;;;;;5124751;27;19912;-56
2022/08/18 13:11:38;;;;;;;;;;;32.20;38.00;;;;;;5111770;27;19918;-56
2022/08/18 13:14:18;;;;;;;;;;;31.90;37.90;;;;;;5125638;27;19918;-55
2022/08/18 13:16:58;;;;;;;;;;;31.90;38.50;;;;;;5104881;27;19912;-57
2022/08/18 13:19:38;;;;;;;;;;;32.10;38.00;;;;;;5124766;27;20377;-57
2022/08/18 13:22:17;;;;;;;;;;;32.10;38.50;;;;;;5104771;27;19918;-55
2022/08/18 13:24:57;;;;;;;;;;;32.20;38.20;;;;;;5126525;27;19919;-56
2022/08/18 13:27:38;;;;;;;;;;;32.30;37.80;;;;;;5125773;27;19912;-56
2022/08/18 13:30:18;;;;;;;;;;;32.40;38.10;;;;;;5122909;27;19912;-56
2022/08/18 13:32:59;;;;;;;;;;;32.50;37.70;;;;;;5126080;27;19918;-55
2022/08/18 13:35:38;;;;;;;;;;;32.60;38.10;;;;;;5125387;27;19922;-56
2022/08/18 13:38:21;;;;;;;;;;;32.50;38.50;;;;;;5125446;27;19949;-56
2022/08/18 13:41:03;;;;;;;;;;;32.30;38.90;;;;;;5123449;27;19915;-55
2022/08/18 13:43:45;;;;;;;;;;;32.10;39.20;;;;;;5126211;27;19918;-56
2022/08/18 13:46:25;;;;;;;;;;;32.10;40.40;;;;;;5125475;27;20380;-57
2022/08/18 13:49:05;;;;;;;;;;;32.00;39.60;;;;;;5125466;27;19915;-55
2022/08/18 13:51:48;;;;;;;;;;;31.80;39.40;;;;;;5111603;27;20312;-55
2022/08/18 13:54:31;;;;;;;;;;;31.80;39.70;;;;;;5084722;27;19916;-56
2022/08/18 13:57:11;;;;;;;;;;;31.80;40.20;;;;;;5125556;27;19911;-56
2022/08/18 13:59:51;;;;;;;;;;;31.70;40.20;;;;;;5146559;27;19918;-56
2022/08/18 14:02:31;;;;;;;;;;;31.60;40.40;;;;;;5106234;27;20185;-55
2022/08/18 14:05:11;;;;;;;;;;;31.60;40.70;;;;;;5125449;27;20273;-56
2022/08/18 14:07:50;;;;;;;;;;;31.40;40.40;;;;;;5146191;27;20311;-56
2022/08/18 14:10:30;;;;;;;;;;;31.40;41.00;;;;;;5121548;27;19919;-56
2022/08/18 14:13:10;;;;;;;;;;;31.60;40.90;;;;;;5125751;27;19918;-55
2022/08/18 14:15:50;;;;;;;;;;;32.10;40.60;;;;;;5125309;27;19919;-56
2022/08/18 14:18:31;;;;;;;;;;;32.40;41.30;;;;;;5126459;27;19912;-56
2022/08/18 14:27:06;;;;;;;;;;;33.00;39.40;;;;;;5125709;27;19933;-56
2022/08/18 14:29:47;;;;;;;;;;;32.90;39.80;;;;;;5125555;27;20627;-55
2022/08/18 14:32:28;;;;;;;;;;;32.70;39.90;;;;;;5125451;27;19915;-55
2022/08/18 14:35:10;;;;;;;;;;;32.50;40.70;;;;;;5104893;27;20404;-57
2022/08/18 14:37:50;;;;;;;;;;;32.30;40.30;;;;;;5134219;27;20319;-56
2022/08/18 14:40:32;;;;;;;;;;;32.00;41.30;;;;;;5084384;28;19916;-55
2022/08/18 14:43:13;;;;;;;;;;;31.70;41.00;;;;;;5146624;27;19912;-55
2022/08/18 14:45:53;;;;;;;;;;;31.40;41.90;;;;;;5122084;27;19912;-56
2022/08/18 14:48:35;;;;;;;;;;;31.60;41.20;;;;;;5125902;27;20296;-55
2022/08/18 14:51:16;;;;;;;;;;;31.80;41.10;;;;;;5115795;27;20381;-56
2022/08/18 14:53:56;;;;;;;;;;;31.80;41.60;;;;;;5125708;27;19912;-56
2022/08/18 14:56:36;;;;;;;;;;;31.90;40.90;;;;;;5126105;27;19925;-57
2022/08/18 14:59:15;;;;;;;;;;;31.70;41.20;;;;;;5125008;27;19922;-55
2022/08/18 15:01:55;;;;;;;;;;;31.40;42.50;;;;;;5125750;27;20320;-55
2022/08/18 15:04:35;;;;;;;;;;;31.00;42.20;;;;;;5105042;27;19912;-55
2022/08/18 15:07:15;;;;;;;;;;;30.60;42.60;;;;;;5125584;27;20369;-57
2022/08/18 15:09:55;;;;;;;;;;;30.30;43.80;;;;;;5104821;27;19919;-55
2022/08/18 15:12:36;;;;;;;;;;;30.10;44.00;;;;;;5125537;27;20288;-56
2022/08/18 15:15:16;;;;;;;;;;;29.80;44.60;;;;;;5125826;27;20392;-57
2022/08/18 15:17:56;;;;;;;;;;;29.70;44.60;;;;;;5105473;27;19930;-55
2022/08/18 15:25:40;;;;;;;;;;;29.50;45.50;;;;;;5125311;27;19916;-55
2022/08/18 15:26:34;;;;;;;;;;;29.10;46.20;;;;;;5155326;27;19912;-57
2022/08/18 15:29:15;;;;;;;;;;;29.00;46.70;;;;;;5125432;27;19911;-55
2022/08/18 15:31:55;;;;;;;;;;;29.00;47.00;;;;;;5126789;27;19912;-56
2022/08/18 15:34:35;;;;;;;;;;;29.00;47.30;;;;;;5125794;27;19949;-56
2022/08/18 15:37:15;;;;;;;;;;;29.20;46.90;;;;;;5125587;27;20314;-55
2022/08/18 15:40:11;;;;;;;;;;;29.30;46.80;;;;;;5125887;27;19911;-55
2022/08/18 15:42:52;;;;;;;;;;;29.50;46.70;;;;;;5105269;27;19930;-57
2022/08/18 15:45:34;;;;;;;;;;;29.60;46.10;;;;;;5125844;27;19916;-56
2022/08/18 15:48:15;;;;;;;;;;;29.70;46.20;;;;;;5105304;27;19912;-55
2022/08/18 15:50:56;;;;;;;;;;;29.80;45.50;;;;;;5125426;27;20397;-56
2022/08/18 15:53:37;;;;;;;;;;;29.70;45.60;;;;;;5125743;27;19912;-56
2022/08/18 15:56:18;;;;;;;;;;;29.70;45.10;;;;;;5125377;27;19912;-58
2022/08/18 15:59:03;;;;;;;;;;;29.80;44.80;;;;;;5104796;27;19926;-58
2022/08/18 16:01:43;;;;;;;;;;;30.00;44.20;;;;;;5106601;27;20209;-55
2022/08/18 16:04:23;;;;;;;;;;;30.40;43.90;;;;;;5126205;27;19918;-57
2022/08/18 16:07:03;;;;;;;;;;;30.80;43.00;;;;;;5105361;27;20187;-55
2022/08/18 16:09:43;;;;;;;;;;;31.10;42.80;;;;;;5124984;27;19922;-55
2022/08/18 16:12:23;;;;;;;;;;;31.00;42.80;;;;;;5105719;27;19930;-56